createdAt,value
2023-01-20T00:01:37.941Z,97639.22
2023-01-20T00:04:05.647Z,97640.06
2023-01-20T00:06:33.270Z,97633.50
2023-01-20T00:09:02.337Z,97642.81
2023-01-20T00:11:30.263Z,97648.03
2023-01-20T00:13:59.740Z,97646.31
2023-01-20T00:16:27.421Z,97650.22
2023-01-20T00:18:55.032Z,97651.31
2023-01-20T00:21:22.635Z,97651.03
2023-01-20T00:23:50.988Z,97654.72
2023-01-20T00:26:21.186Z,97651.25
2023-01-20T00:28:49.128Z,97648.28
2023-01-20T00:31:24.444Z,97653.94
2023-01-20T00:33:53.245Z,97655.84
2023-01-20T00:36:21.240Z,97660.41
2023-01-20T00:38:48.853Z,97661.47
2023-01-20T00:41:16.519Z,97660.63
2023-01-20T00:43:44.157Z,97667.13
2023-01-20T00:46:11.976Z,97672.88
2023-01-20T00:48:39.483Z,97674.38
2023-01-20T00:51:08.121Z,97665.53
2023-01-20T00:53:35.744Z,97663.38
2023-01-20T00:56:03.028Z,97677.94
2023-01-20T00:58:30.314Z,97677.09
2023-01-20T01:00:58.714Z,97680.94
2023-01-20T01:03:27.966Z,97684.53
2023-01-20T01:06:04.891Z,97686.47
2023-01-20T01:08:32.912Z,97698.53
2023-01-20T01:11:00.177Z,97696.19
2023-01-20T01:13:27.515Z,97696.34
2023-01-20T01:15:54.797Z,97700.72
2023-01-20T01:18:22.125Z,97701.22
2023-01-20T01:20:49.449Z,97703.28
2023-01-20T01:23:16.991Z,97700.41
2023-01-20T01:25:44.326Z,97707.28
2023-01-20T01:28:11.652Z,97707.72
2023-01-20T01:30:39.072Z,97723.22
2023-01-20T01:33:06.430Z,97716.66
2023-01-20T01:35:33.730Z,97721.72
2023-01-20T01:38:01.017Z,97721.84
2023-01-20T01:40:28.324Z,97728.97
2023-01-20T01:42:55.681Z,97728.44
2023-01-20T01:45:27.285Z,97728.00
2023-01-20T01:48:08.034Z,97736.34
2023-01-20T01:50:48.529Z,97733.50
2023-01-20T01:53:16.198Z,97734.16
2023-01-20T01:55:47.967Z,97728.94
2023-01-20T01:58:17.063Z,97734.44
2023-01-20T02:00:44.614Z,97727.19
2023-01-20T02:03:12.340Z,97724.59
2023-01-20T02:05:39.902Z,97725.69
2023-01-20T02:08:08.394Z,97732.28
2023-01-20T02:10:35.852Z,97732.53
2023-01-20T02:13:03.719Z,97732.41
2023-01-20T02:16:04.196Z,97733.59
2023-01-20T02:18:52.655Z,97738.81
2023-01-20T02:22:04.426Z,97738.41
2023-01-20T02:25:14.569Z,97742.94
2023-01-20T02:28:19.631Z,97748.97
2023-01-20T02:30:58.808Z,97754.47
2023-01-20T02:34:00.293Z,97753.94
2023-01-20T02:36:43.748Z,97747.06
2023-01-20T02:39:27.388Z,97756.81
2023-01-20T02:41:58.732Z,97750.91
2023-01-20T02:44:49.228Z,97745.94
2023-01-20T02:47:26.590Z,97755.47
2023-01-20T02:49:53.850Z,97756.03
2023-01-20T02:52:24.758Z,97752.28
2023-01-20T02:54:56.542Z,97753.44
2023-01-20T02:57:30.168Z,97756.69
2023-01-20T03:00:08.050Z,97754.63
2023-01-20T03:02:37.604Z,97753.69
2023-01-20T03:05:09.433Z,97762.50
2023-01-20T03:07:38.716Z,97760.72
2023-01-20T03:10:08.694Z,97769.34
2023-01-20T03:12:57.815Z,97773.06
2023-01-20T03:15:29.839Z,97779.22
2023-01-20T03:17:57.203Z,97780.06
2023-01-20T03:20:24.686Z,97776.47
2023-01-20T03:22:51.944Z,97777.44
2023-01-20T03:25:20.486Z,97779.34
2023-01-20T03:27:48.095Z,97781.97
2023-01-20T03:30:18.505Z,97789.91
2023-01-20T03:32:47.724Z,97786.09
2023-01-20T03:35:18.643Z,97781.97
2023-01-20T03:37:46.799Z,97779.75
2023-01-20T03:40:15.063Z,97789.22
2023-01-20T03:43:06.155Z,97788.38
2023-01-20T03:45:52.036Z,97793.88
2023-01-20T03:48:46.794Z,97793.75
2023-01-20T03:51:35.069Z,97794.28
2023-01-20T03:54:09.451Z,97795.69
2023-01-20T03:57:03.975Z,97808.56
2023-01-20T03:59:37.904Z,97810.50
2023-01-20T04:02:09.227Z,97804.88
2023-01-20T04:04:40.080Z,97812.56
2023-01-20T04:07:13.719Z,97814.66
2023-01-20T04:09:46.225Z,97815.75
2023-01-20T04:12:13.594Z,97822.59
2023-01-20T04:14:40.917Z,97819.44
2023-01-20T04:17:08.406Z,97822.31
2023-01-20T04:19:35.685Z,97824.78
2023-01-20T04:22:12.882Z,97828.66
2023-01-20T04:24:55.272Z,97829.88
2023-01-20T04:27:22.567Z,97840.03
2023-01-20T04:29:49.839Z,97831.38
2023-01-20T04:32:17.243Z,97839.78
2023-01-20T04:34:44.555Z,97839.91
2023-01-20T04:37:11.895Z,97846.63
2023-01-20T04:39:39.186Z,97846.78
2023-01-20T04:42:06.510Z,97850.06
2023-01-20T04:44:33.870Z,97844.97
2023-01-20T04:47:01.171Z,97847.03
2023-01-20T04:49:28.472Z,97851.44
2023-01-20T04:51:55.745Z,97849.91
2023-01-20T04:54:23.023Z,97850.47
2023-01-20T04:56:50.446Z,97853.50
2023-01-20T04:59:17.823Z,97865.16
2023-01-20T05:01:45.194Z,97864.47
2023-01-20T05:04:12.591Z,97868.44
2023-01-20T05:06:42.662Z,97872.00
2023-01-20T05:09:16.400Z,97870.94
2023-01-20T05:11:44.164Z,97867.91
2023-01-20T05:14:12.348Z,97874.25
2023-01-20T05:16:39.650Z,97875.31
2023-01-20T05:19:06.962Z,97877.91
2023-01-20T05:21:34.226Z,97872.72
2023-01-20T05:24:01.507Z,97867.50
2023-01-20T05:26:28.937Z,97879.72
2023-01-20T05:28:56.462Z,97887.94
2023-01-20T05:31:23.847Z,97891.25
2023-01-20T05:33:51.343Z,97895.06
2023-01-20T05:36:18.634Z,97905.34
2023-01-20T05:38:45.951Z,97906.31
2023-01-20T05:41:13.495Z,97905.78
2023-01-20T05:43:40.866Z,97909.22
2023-01-20T05:46:08.318Z,97911.97
2023-01-20T05:48:35.626Z,97911.28
2023-01-20T05:51:02.944Z,97911.53
2023-01-20T05:53:30.234Z,97918.97
2023-01-20T05:56:02.311Z,97926.13
2023-01-20T05:58:30.668Z,97920.88
2023-01-20T06:01:12.274Z,97928.19
2023-01-20T06:03:39.814Z,97933.66
2023-01-20T06:06:08.925Z,97932.88
2023-01-20T06:08:36.570Z,97936.63
2023-01-20T06:11:03.918Z,97936.41
2023-01-20T06:13:31.245Z,97931.31
2023-01-20T06:15:58.806Z,97937.22
2023-01-20T06:18:26.199Z,97943.13
2023-01-20T06:20:58.249Z,97947.25
2023-01-20T06:23:26.489Z,97948.22
2023-01-20T06:26:13.273Z,97940.69
2023-01-20T06:28:40.913Z,97950.03
2023-01-20T06:31:11.176Z,97950.56
2023-01-20T06:33:38.528Z,97954.25
2023-01-20T06:36:06.713Z,97962.09
2023-01-20T06:38:35.117Z,97965.69
2023-01-20T06:41:04.560Z,97971.03
2023-01-20T06:43:33.950Z,97974.88
2023-01-20T06:46:07.024Z,97988.47
2023-01-20T06:48:34.455Z,97985.69
2023-01-20T06:51:13.776Z,97985.16
2023-01-20T06:53:41.715Z,97994.50
2023-01-20T06:56:10.938Z,97992.75
2023-01-20T06:58:38.758Z,97999.19
2023-01-20T07:01:08.886Z,98005.75
2023-01-20T07:03:36.936Z,98002.72
2023-01-20T07:06:26.743Z,98015.94
2023-01-20T07:08:54.095Z,98021.66
2023-01-20T07:11:21.393Z,98025.16
2023-01-20T07:13:48.845Z,98038.75
2023-01-20T07:16:16.271Z,98037.16
2023-01-20T07:18:47.595Z,98033.19
2023-01-20T07:21:15.108Z,98046.97
2023-01-20T07:23:42.403Z,98040.94
2023-01-20T07:26:11.850Z,98054.19
2023-01-20T07:28:39.567Z,98050.19
2023-01-20T07:31:08.629Z,98056.84
2023-01-20T07:33:36.532Z,98059.41
2023-01-20T07:36:04.140Z,98073.06
2023-01-20T07:38:31.427Z,98070.75
2023-01-20T07:41:05.119Z,98080.56
2023-01-20T07:43:33.239Z,98068.28
2023-01-20T07:46:02.332Z,98073.22
2023-01-20T07:48:32.119Z,98079.75
2023-01-20T07:51:03.011Z,98087.84
2023-01-20T07:53:40.767Z,98095.28
2023-01-20T07:56:13.668Z,98092.47
2023-01-20T07:58:41.059Z,98090.53
2023-01-20T08:01:19.383Z,98098.78
2023-01-20T08:03:46.821Z,98099.91
2023-01-20T08:06:16.436Z,98105.91
2023-01-20T08:08:43.911Z,98111.38
2023-01-20T08:11:14.397Z,98105.13
2023-01-20T08:13:44.687Z,98108.81
2023-01-20T08:16:15.424Z,98112.72
2023-01-20T08:18:43.221Z,98116.91
2023-01-20T08:21:19.522Z,98125.59
2023-01-20T08:23:46.804Z,98121.19
2023-01-20T08:26:14.430Z,98123.84
2023-01-20T08:28:41.749Z,98130.69
2023-01-20T08:31:11.708Z,98125.69
2023-01-20T08:33:39.779Z,98117.59
2023-01-20T08:36:10.125Z,98124.97
2023-01-20T08:38:37.866Z,98126.41
2023-01-20T08:41:10.823Z,98128.38
2023-01-20T08:43:38.612Z,98138.09
2023-01-20T08:46:08.789Z,98139.28
2023-01-20T08:48:37.083Z,98139.28
2023-01-20T08:51:07.663Z,98148.81
2023-01-20T08:53:35.443Z,98150.00
2023-01-20T08:56:06.477Z,98156.25
2023-01-20T08:58:33.840Z,98161.66
2023-01-20T09:01:01.389Z,98156.22
2023-01-20T09:03:28.985Z,98157.25
2023-01-20T09:05:59.227Z,98157.63
2023-01-20T09:08:26.988Z,98164.75
2023-01-20T09:10:54.357Z,98161.72
2023-01-20T09:13:21.695Z,98169.84
2023-01-20T09:15:53.013Z,98160.38
2023-01-20T09:18:20.426Z,98166.84
2023-01-20T09:20:47.734Z,98172.28
2023-01-20T09:23:15.173Z,98175.38
2023-01-20T09:25:42.649Z,98178.00
2023-01-20T09:28:10.098Z,98176.19
2023-01-20T09:30:39.662Z,98181.56
2023-01-20T09:33:06.936Z,98182.22
2023-01-20T09:35:34.225Z,98189.03
2023-01-20T09:38:20.340Z,98184.97
2023-01-20T09:41:46.764Z,98182.56
2023-01-20T09:44:23.313Z,98191.44
2023-01-20T09:47:21.232Z,98189.97
2023-01-20T09:50:41.659Z,98199.63
2023-01-20T09:53:35.920Z,98197.16
2023-01-20T09:56:16.508Z,98197.38
2023-01-20T09:59:30.244Z,98205.38
2023-01-20T10:02:00.309Z,98198.88
2023-01-20T10:04:41.647Z,98199.97
2023-01-20T10:07:44.877Z,98209.34
2023-01-20T10:10:23.719Z,98204.78
2023-01-20T10:13:20.579Z,98205.34
2023-01-20T10:15:53.398Z,98202.03
2023-01-20T10:18:47.440Z,98200.88
2023-01-20T10:21:20.883Z,98205.13
2023-01-20T10:24:00.813Z,98212.09
2023-01-20T10:26:38.753Z,98210.34
2023-01-20T10:29:13.480Z,98210.97
2023-01-20T10:31:51.621Z,98213.06
2023-01-20T10:34:20.610Z,98216.25
2023-01-20T10:36:56.087Z,98217.66
2023-01-20T10:39:37.760Z,98222.31
2023-01-20T10:42:13.373Z,98221.41
2023-01-20T10:44:41.117Z,98216.56
2023-01-20T10:47:30.209Z,98215.41
2023-01-20T10:50:35.817Z,98214.94
2023-01-20T10:53:40.230Z,98222.13
2023-01-20T10:56:14.428Z,98214.00
2023-01-20T10:58:45.098Z,98211.22
2023-01-20T11:01:21.929Z,98211.75
2023-01-20T11:03:49.959Z,98213.13
2023-01-20T11:06:26.685Z,98219.66
2023-01-20T11:08:55.419Z,98222.09
2023-01-20T11:11:24.312Z,98217.56
2023-01-20T11:13:53.044Z,98212.09
2023-01-20T11:16:24.830Z,98223.53
2023-01-20T11:18:58.141Z,98228.72
2023-01-20T11:21:28.101Z,98220.47
2023-01-20T11:23:56.684Z,98228.84
2023-01-20T11:26:36.942Z,98224.28
2023-01-20T11:29:28.044Z,98213.91
2023-01-20T11:31:56.345Z,98217.59
2023-01-20T11:34:35.091Z,98222.00
2023-01-20T11:37:05.490Z,98213.78
2023-01-20T11:39:42.557Z,98210.94
2023-01-20T11:42:23.911Z,98215.66
2023-01-20T11:45:19.828Z,98225.88
2023-01-20T11:47:59.236Z,98223.81
2023-01-20T11:50:35.385Z,98226.56
2023-01-20T11:53:26.568Z,98236.00
2023-01-20T11:56:05.040Z,98218.59
2023-01-20T11:58:34.545Z,98234.31
2023-01-20T12:01:04.755Z,98222.03
2023-01-20T12:03:55.522Z,98228.91
2023-01-20T12:06:52.123Z,98219.25
2023-01-20T12:09:22.413Z,98215.41
2023-01-20T12:12:02.333Z,98233.88
2023-01-20T12:14:39.007Z,98222.25
2023-01-20T12:17:21.368Z,98217.16
2023-01-20T12:20:19.982Z,98225.34
2023-01-20T12:23:21.185Z,98235.91
2023-01-20T12:25:56.082Z,98237.19
2023-01-20T12:28:54.035Z,98239.50
2023-01-20T12:31:23.948Z,98238.53
2023-01-20T12:34:02.889Z,98244.56
2023-01-20T12:37:00.506Z,98245.44
2023-01-20T12:39:46.620Z,98245.28
2023-01-20T12:42:40.321Z,98238.00
2023-01-20T12:45:59.395Z,98245.97
2023-01-20T12:48:50.148Z,98246.38
2023-01-20T12:51:32.515Z,98253.50
2023-01-20T12:54:02.459Z,98251.97
2023-01-20T12:57:04.624Z,98256.81
2023-01-20T12:59:50.096Z,98260.38
2023-01-20T13:02:20.085Z,98249.56
2023-01-20T13:05:45.631Z,98249.84
2023-01-20T13:08:26.269Z,98256.00
2023-01-20T13:11:00.011Z,98267.66
2023-01-20T13:13:56.849Z,98254.78
2023-01-20T13:16:46.719Z,98256.22
2023-01-20T13:19:27.278Z,98251.81
2023-01-20T13:22:07.313Z,98244.97
2023-01-20T13:24:39.605Z,98250.78
2023-01-20T13:27:07.113Z,98251.56
2023-01-20T13:29:37.403Z,98245.81
2023-01-20T13:32:14.364Z,98241.94
2023-01-20T13:34:41.920Z,98239.03
2023-01-20T13:37:23.450Z,98241.31
2023-01-20T13:39:51.413Z,98245.13
2023-01-20T13:42:37.595Z,98241.84
2023-01-20T13:45:14.658Z,98248.16
2023-01-20T13:48:06.495Z,98249.03
2023-01-20T13:50:39.070Z,98244.88
2023-01-20T13:53:15.338Z,98249.16
2023-01-20T13:55:45.280Z,98239.34
2023-01-20T13:58:34.043Z,98238.81
2023-01-20T14:01:04.203Z,98241.22
2023-01-20T14:03:37.134Z,98242.38
2023-01-20T14:06:20.254Z,98240.69
2023-01-20T14:08:50.272Z,98244.88
2023-01-20T14:11:23.592Z,98241.66
2023-01-20T14:13:59.228Z,98249.84
2023-01-20T14:16:36.897Z,98257.44
2023-01-20T14:19:25.300Z,98254.47
2023-01-20T14:21:57.586Z,98258.59
2023-01-20T14:24:24.884Z,98262.06
2023-01-20T14:26:52.180Z,98248.25
2023-01-20T14:29:22.122Z,98246.84
2023-01-20T14:31:49.499Z,98264.28
2023-01-20T14:34:27.198Z,98258.78
2023-01-20T14:37:00.151Z,98275.94
2023-01-20T14:39:29.347Z,98271.03
2023-01-20T14:41:59.002Z,98274.53
2023-01-20T14:44:33.189Z,98271.28
2023-01-20T14:47:02.479Z,98278.88
2023-01-20T14:49:49.236Z,98280.84
2023-01-20T14:52:28.519Z,98287.41
2023-01-20T14:54:56.644Z,98291.41
2023-01-20T14:57:28.304Z,98285.63
2023-01-20T15:00:21.683Z,98301.00
2023-01-20T15:03:09.978Z,98301.56
2023-01-20T15:05:40.325Z,98295.91
2023-01-20T15:08:25.310Z,98300.25
2023-01-20T15:11:21.524Z,98301.69
2023-01-20T15:14:01.370Z,98306.16
2023-01-20T15:16:44.037Z,98304.41
2023-01-20T15:19:18.252Z,98306.28
2023-01-20T15:21:56.621Z,98315.69
2023-01-20T15:24:31.996Z,98311.59
2023-01-20T15:27:00.759Z,98319.75
2023-01-20T15:29:33.173Z,98324.66
2023-01-20T15:32:02.506Z,98325.34
2023-01-20T15:34:29.986Z,98330.78
2023-01-20T15:36:57.579Z,98328.00
2023-01-20T15:39:29.065Z,98339.22
2023-01-20T15:41:59.746Z,98338.97
2023-01-20T15:44:27.365Z,98343.91
2023-01-20T15:46:57.360Z,98342.63
2023-01-20T15:49:25.720Z,98342.44
2023-01-20T15:51:53.354Z,98338.22
2023-01-20T15:54:20.953Z,98338.00
2023-01-20T15:56:48.278Z,98346.34
2023-01-20T15:59:18.437Z,98352.72
2023-01-20T16:01:51.602Z,98352.84
2023-01-20T16:04:19.218Z,98349.97
2023-01-20T16:06:46.614Z,98348.81
2023-01-20T16:09:27.492Z,98359.50
2023-01-20T16:11:56.835Z,98366.81
2023-01-20T16:14:24.312Z,98358.97
2023-01-20T16:16:51.621Z,98367.34
2023-01-20T16:19:18.957Z,98371.16
2023-01-20T16:21:46.279Z,98366.88
2023-01-20T16:24:13.650Z,98370.63
2023-01-20T16:27:01.923Z,98371.16
2023-01-20T16:29:29.227Z,98375.03
2023-01-20T16:31:56.641Z,98379.63
2023-01-20T16:34:23.965Z,98385.91
2023-01-20T16:36:51.341Z,98386.94
2023-01-20T16:39:18.675Z,98388.97
2023-01-20T16:41:49.245Z,98396.69
2023-01-20T16:44:16.978Z,98395.66
2023-01-20T16:46:47.195Z,98400.81
2023-01-20T16:49:14.580Z,98387.19
2023-01-20T16:51:42.007Z,98396.38
2023-01-20T16:54:10.137Z,98399.69
2023-01-20T16:56:37.503Z,98402.50
2023-01-20T16:59:05.682Z,98412.16
2023-01-20T17:01:33.346Z,98410.38
2023-01-20T17:04:02.209Z,98415.56
2023-01-20T17:06:32.581Z,98415.41
2023-01-20T17:09:01.514Z,98421.59
2023-01-20T17:11:40.392Z,98433.13
2023-01-20T17:14:10.208Z,98429.03
2023-01-20T17:16:38.329Z,98433.59
2023-01-20T17:19:10.196Z,98435.03
2023-01-20T17:21:39.220Z,98429.81
2023-01-20T17:24:07.139Z,98438.38
2023-01-20T17:26:36.975Z,98438.81
2023-01-20T17:29:05.359Z,98440.50
2023-01-20T17:31:35.526Z,98443.78
2023-01-20T17:34:09.229Z,98448.34
2023-01-20T17:36:36.755Z,98445.72
2023-01-20T17:39:05.080Z,98447.47
2023-01-20T17:41:33.024Z,98455.47
2023-01-20T17:44:00.402Z,98465.94
2023-01-20T17:46:29.601Z,98460.34
2023-01-20T17:48:58.381Z,98461.16
2023-01-20T17:51:27.753Z,98468.72
2023-01-20T17:53:55.265Z,98469.88
2023-01-20T17:56:23.183Z,98472.00
2023-01-20T17:58:50.831Z,98473.72
2023-01-20T18:01:29.880Z,98471.75
2023-01-20T18:03:58.945Z,98476.53
2023-01-20T18:06:27.629Z,98477.03
2023-01-20T18:08:57.740Z,98475.63
2023-01-20T18:11:27.061Z,98479.16
2023-01-20T18:13:55.841Z,98471.13
2023-01-20T18:16:27.182Z,98474.22
2023-01-20T18:18:58.679Z,98479.69
2023-01-20T18:21:31.195Z,98476.06
2023-01-20T18:23:59.322Z,98478.75
2023-01-20T18:26:31.597Z,98474.75
2023-01-20T18:29:00.986Z,98469.66
2023-01-20T18:31:29.887Z,98473.94
2023-01-20T18:34:00.126Z,98469.69
2023-01-20T18:36:39.947Z,98475.84
2023-01-20T18:39:24.538Z,98477.91
2023-01-20T18:41:52.383Z,98474.25
2023-01-20T18:44:19.904Z,98479.00
2023-01-20T18:46:50.459Z,98480.44
2023-01-20T18:49:19.602Z,98478.00
2023-01-20T18:51:47.236Z,98479.44
2023-01-20T18:54:20.867Z,98484.44
2023-01-20T18:56:48.386Z,98488.00
2023-01-20T18:59:15.738Z,98480.28
2023-01-20T19:01:44.549Z,98489.38
2023-01-20T19:04:13.520Z,98487.34
2023-01-20T19:06:42.792Z,98485.91
2023-01-20T19:09:10.681Z,98481.16
2023-01-20T19:11:40.048Z,98490.84
2023-01-20T19:14:11.611Z,98487.66
2023-01-20T19:16:42.220Z,98489.44
2023-01-20T19:19:10.943Z,98482.38
2023-01-20T19:21:38.413Z,98490.28
2023-01-20T19:24:07.781Z,98497.72
2023-01-20T19:26:37.318Z,98496.41
2023-01-20T19:29:07.191Z,98501.03
2023-01-20T19:31:37.210Z,98504.09
2023-01-20T19:34:08.540Z,98495.72
2023-01-20T19:36:36.296Z,98507.22
2023-01-20T19:39:04.130Z,98497.72
2023-01-20T19:41:34.219Z,98499.69
2023-01-20T19:44:03.156Z,98495.00
2023-01-20T19:46:32.004Z,98503.41
2023-01-20T19:49:00.125Z,98504.53
2023-01-20T19:51:27.680Z,98501.56
2023-01-20T19:53:57.991Z,98503.09
2023-01-20T19:56:28.156Z,98515.16
2023-01-20T19:58:56.445Z,98509.38
2023-01-20T20:01:43.834Z,98513.72
2023-01-20T20:04:13.116Z,98515.75
2023-01-20T20:06:48.489Z,98519.09
2023-01-20T20:09:21.136Z,98516.66
2023-01-20T20:11:48.555Z,98515.72
2023-01-20T20:14:20.126Z,98519.41
2023-01-20T20:16:53.762Z,98521.63
2023-01-20T20:19:23.697Z,98520.25
2023-01-20T20:21:51.051Z,98522.38
2023-01-20T20:24:19.254Z,98520.97
2023-01-20T20:26:47.417Z,98521.22
2023-01-20T20:29:16.173Z,98528.81
2023-01-20T20:31:43.708Z,98527.38
2023-01-20T20:34:14.604Z,98525.84
2023-01-20T20:36:42.152Z,98521.69
2023-01-20T20:39:16.343Z,98534.47
2023-01-20T20:41:47.928Z,98535.47
2023-01-20T20:44:18.049Z,98542.34
2023-01-20T20:46:45.720Z,98532.72
2023-01-20T20:49:16.257Z,98538.19
2023-01-20T20:51:43.849Z,98536.16
2023-01-20T20:54:13.969Z,98540.69
2023-01-20T20:56:44.330Z,98542.44
2023-01-20T20:59:12.093Z,98538.75
2023-01-20T21:01:40.139Z,98542.22
2023-01-20T21:04:07.997Z,98545.75
2023-01-20T21:06:35.800Z,98548.16
2023-01-20T21:09:03.635Z,98536.84
2023-01-20T21:11:31.417Z,98538.53
2023-01-20T21:13:59.457Z,98533.31
2023-01-20T21:16:28.170Z,98544.22
2023-01-20T21:18:56.873Z,98545.19
2023-01-20T21:21:25.129Z,98545.91
2023-01-20T21:23:56.001Z,98554.91
2023-01-20T21:26:28.132Z,98551.56
2023-01-20T21:29:00.195Z,98552.75
2023-01-20T21:31:28.176Z,98553.94
2023-01-20T21:34:00.574Z,98559.25
2023-01-20T21:36:30.389Z,98564.13
2023-01-20T21:38:59.945Z,98555.34
2023-01-20T21:41:27.760Z,98555.09
2023-01-20T21:44:14.956Z,98561.28
2023-01-20T21:46:43.094Z,98564.59
2023-01-20T21:49:29.209Z,98561.56
2023-01-20T21:52:15.906Z,98569.59
2023-01-20T21:54:45.528Z,98566.50
2023-01-20T21:57:14.271Z,98557.56
2023-01-20T21:59:42.362Z,98556.38
2023-01-20T22:02:12.417Z,98553.28
2023-01-20T22:04:40.124Z,98554.50
2023-01-20T22:07:08.042Z,98567.31
2023-01-20T22:09:35.618Z,98567.34
2023-01-20T22:12:03.690Z,98571.63
2023-01-20T22:14:32.644Z,98569.19
2023-01-20T22:17:00.456Z,98570.53
2023-01-20T22:19:30.178Z,98568.91
2023-01-20T22:21:58.264Z,98584.19
2023-01-20T22:24:26.086Z,98588.69
2023-01-20T22:26:54.322Z,98584.34
2023-01-20T22:29:21.863Z,98581.06
2023-01-20T22:32:01.667Z,98594.00
2023-01-20T22:34:30.717Z,98593.94
2023-01-20T22:37:01.722Z,98590.34
2023-01-20T22:39:36.128Z,98591.88
2023-01-20T22:42:09.739Z,98592.72
2023-01-20T22:44:42.960Z,98591.88
2023-01-20T22:47:18.010Z,98589.28
2023-01-20T22:49:49.676Z,98589.75
2023-01-20T22:52:19.839Z,98600.56
2023-01-20T22:54:50.840Z,98586.81
2023-01-20T22:57:20.143Z,98593.91
2023-01-20T22:59:54.172Z,98598.66
2023-01-20T23:02:28.029Z,98595.78
2023-01-20T23:05:03.043Z,98592.00
2023-01-20T23:10:38.930Z,98591.03
2023-01-20T23:16:02.244Z,98602.06
2023-01-20T23:18:39.101Z,98601.38
2023-01-20T23:21:23.514Z,98605.19
2023-01-20T23:23:57.737Z,98601.63
2023-01-20T23:26:29.080Z,98603.97
2023-01-20T23:29:00.258Z,98611.81
2023-01-20T23:31:40.919Z,98611.81
2023-01-20T23:34:24.424Z,98614.19
2023-01-20T23:37:04.495Z,98606.47
2023-01-20T23:39:36.992Z,98605.66
2023-01-20T23:45:10.020Z,98611.81
2023-01-20T23:47:46.108Z,98617.25
2023-01-20T23:50:17.066Z,98621.53
2023-01-20T23:52:51.509Z,98628.66
2023-01-20T23:55:25.929Z,98627.94
2023-01-20T23:58:19.153Z,98634.59
